createdAt,value
2023-01-15T00:00:17.036Z,73.17
2023-01-15T00:04:05.871Z,73.34
2023-01-15T00:07:32.981Z,73.45
2023-01-15T00:11:00.077Z,73.28
2023-01-15T00:14:26.572Z,73.43
2023-01-15T00:17:54.849Z,73.14
2023-01-15T00:21:28.298Z,73.26
2023-01-15T00:25:13.337Z,73.10
2023-01-15T00:28:40.062Z,73.08
2023-01-15T00:32:11.596Z,73.15
2023-01-15T00:35:41.655Z,72.98
2023-01-15T00:39:08.928Z,73.08
2023-01-15T00:42:36.697Z,73.16
2023-01-15T00:46:05.403Z,73.14
2023-01-15T00:49:32.686Z,73.33
2023-01-15T00:53:01.091Z,73.02
2023-01-15T00:56:28.506Z,72.80
2023-01-15T00:59:55.438Z,73.01
2023-01-15T01:03:25.150Z,73.05
2023-01-15T01:06:52.940Z,72.80
2023-01-15T01:10:22.331Z,72.93
2023-01-15T01:13:50.388Z,72.51
2023-01-15T01:17:18.201Z,73.08
2023-01-15T01:20:45.672Z,72.76
2023-01-15T01:24:15.109Z,72.82
2023-01-15T01:27:43.927Z,72.58
2023-01-15T01:31:11.255Z,72.63
2023-01-15T01:34:38.303Z,72.79
2023-01-15T01:38:06.077Z,72.65
2023-01-15T01:41:34.221Z,72.42
2023-01-15T01:45:16.503Z,72.39
2023-01-15T01:48:46.557Z,72.38
2023-01-15T01:52:25.499Z,72.42
2023-01-15T01:55:55.363Z,72.15
2023-01-15T01:59:24.929Z,72.27
2023-01-15T02:02:57.111Z,72.16
2023-01-15T02:06:27.371Z,71.73
2023-01-15T02:09:56.510Z,71.79
2023-01-15T02:13:35.796Z,72.13
2023-01-15T02:17:16.638Z,71.89
2023-01-15T02:20:51.263Z,71.93
2023-01-15T02:24:26.747Z,71.77
2023-01-15T02:28:01.875Z,71.57
2023-01-15T02:31:37.899Z,71.81
2023-01-15T02:35:13.981Z,71.57
2023-01-15T02:38:47.117Z,71.32
2023-01-15T02:42:14.468Z,71.33
2023-01-15T02:45:50.715Z,71.34
2023-01-15T02:49:23.875Z,71.36
2023-01-15T02:52:56.117Z,71.40
2023-01-15T02:56:26.390Z,71.38
2023-01-15T03:00:00.102Z,70.89
2023-01-15T03:03:37.609Z,71.08
2023-01-15T03:07:11.537Z,70.90
2023-01-15T03:10:48.082Z,71.29
2023-01-15T03:14:27.166Z,70.77
2023-01-15T03:18:06.409Z,70.89
2023-01-15T03:21:40.060Z,70.78
2023-01-15T03:25:13.838Z,70.89
2023-01-15T03:28:48.566Z,70.82
2023-01-15T03:32:16.721Z,70.78
2023-01-15T03:35:49.991Z,70.48
2023-01-15T03:39:36.929Z,70.76
2023-01-15T03:43:37.348Z,70.55
2023-01-15T03:47:23.074Z,70.39
2023-01-15T03:50:54.655Z,70.81
2023-01-15T03:54:28.417Z,70.66
2023-01-15T03:58:06.962Z,71.29
2023-01-15T04:01:45.814Z,70.88
2023-01-15T04:05:13.053Z,70.93
2023-01-15T04:08:44.001Z,70.79
2023-01-15T04:12:11.998Z,70.84
2023-01-15T04:15:43.060Z,71.09
2023-01-15T04:19:10.537Z,71.11
2023-01-15T04:22:42.307Z,70.90
2023-01-15T04:26:10.467Z,71.05
2023-01-15T04:29:38.430Z,70.96
2023-01-15T04:33:07.416Z,71.17
2023-01-15T04:36:36.807Z,70.81
2023-01-15T04:40:07.545Z,70.90
2023-01-15T04:43:57.940Z,71.16
2023-01-15T04:47:24.764Z,70.92
2023-01-15T04:50:54.521Z,70.75
2023-01-15T04:54:25.112Z,70.89
2023-01-15T04:57:53.855Z,70.89
2023-01-15T05:01:23.102Z,71.04
2023-01-15T05:04:51.755Z,70.93
2023-01-15T05:08:19.450Z,70.62
2023-01-15T05:11:49.418Z,70.71
2023-01-15T05:15:16.806Z,70.99
2023-01-15T05:18:44.715Z,70.64
2023-01-15T05:22:11.889Z,70.64
2023-01-15T05:25:41.182Z,70.79
2023-01-15T05:29:13.442Z,70.68
2023-01-15T05:32:43.362Z,70.82
2023-01-15T05:36:16.693Z,70.76
2023-01-15T05:39:46.085Z,70.89
2023-01-15T05:43:14.619Z,70.88
2023-01-15T05:46:45.075Z,70.65
2023-01-15T05:50:15.563Z,70.96
2023-01-15T05:53:46.598Z,70.77
2023-01-15T05:57:15.928Z,71.16
2023-01-15T06:00:43.649Z,71.09
2023-01-15T06:04:15.139Z,71.65
2023-01-15T06:07:42.621Z,71.60
2023-01-15T06:11:13.162Z,71.95
2023-01-15T06:14:41.152Z,72.09
2023-01-15T06:18:12.255Z,72.03
2023-01-15T06:21:47.402Z,72.56
2023-01-15T06:25:17.219Z,72.31
2023-01-15T06:28:46.589Z,72.64
2023-01-15T06:32:16.145Z,72.67
2023-01-15T06:35:44.420Z,72.52
2023-01-15T06:39:12.868Z,73.25
2023-01-15T06:42:57.515Z,73.22
2023-01-15T06:46:44.968Z,73.14
2023-01-15T06:50:16.696Z,73.18
2023-01-15T06:53:49.407Z,73.38
2023-01-15T06:57:19.076Z,73.43
2023-01-15T07:00:53.922Z,73.78
2023-01-15T07:04:21.378Z,74.08
2023-01-15T07:07:49.783Z,74.31
2023-01-15T07:11:18.192Z,74.04
2023-01-15T07:14:45.351Z,73.93
2023-01-15T07:18:13.867Z,74.16
2023-01-15T07:21:40.676Z,74.30
2023-01-15T07:25:09.718Z,74.43
2023-01-15T07:28:36.404Z,74.50
2023-01-15T07:32:04.027Z,74.62
2023-01-15T07:35:31.537Z,74.82
2023-01-15T07:39:04.911Z,74.93
2023-01-15T07:42:49.191Z,75.15
2023-01-15T07:46:40.197Z,75.21
2023-01-15T07:50:08.705Z,75.16
2023-01-15T07:53:36.799Z,75.07
2023-01-15T07:57:04.228Z,75.40
2023-01-15T08:00:31.250Z,75.53
2023-01-15T08:03:58.116Z,75.67
2023-01-15T08:07:27.345Z,75.84
2023-01-15T08:11:11.909Z,75.74
2023-01-15T08:14:57.713Z,75.78
2023-01-15T08:18:25.303Z,75.82
2023-01-15T08:21:52.438Z,75.98
2023-01-15T08:25:21.384Z,76.13
2023-01-15T08:28:50.032Z,76.16
2023-01-15T08:32:17.778Z,76.47
2023-01-15T08:35:45.932Z,76.56
2023-01-15T08:39:13.648Z,76.54
2023-01-15T08:42:41.627Z,76.63
2023-01-15T08:46:09.146Z,76.58
2023-01-15T08:49:36.149Z,76.50
2023-01-15T08:53:02.784Z,76.69
2023-01-15T08:56:30.891Z,76.66
2023-01-15T08:59:57.715Z,77.09
2023-01-15T09:03:24.661Z,76.87
2023-01-15T09:06:51.654Z,76.47
2023-01-15T09:10:19.045Z,76.83
2023-01-15T09:13:47.084Z,76.72
2023-01-15T09:17:18.454Z,77.11
2023-01-15T09:20:45.402Z,77.09
2023-01-15T09:24:12.222Z,77.06
2023-01-15T09:27:39.234Z,77.52
2023-01-15T09:31:08.439Z,77.39
2023-01-15T09:34:35.459Z,77.19
2023-01-15T09:38:02.066Z,77.59
2023-01-15T09:41:51.935Z,77.59
2023-01-15T09:45:24.311Z,77.69
2023-01-15T09:49:04.527Z,77.61
2023-01-15T09:52:49.930Z,77.83
2023-01-15T09:56:24.428Z,77.81
2023-01-15T09:59:55.028Z,77.99
2023-01-15T10:03:31.579Z,77.70
2023-01-15T10:07:07.816Z,78.09
2023-01-15T10:10:42.559Z,77.84
2023-01-15T10:14:16.758Z,77.15
2023-01-15T10:17:47.683Z,76.92
2023-01-15T10:21:29.893Z,76.25
2023-01-15T10:24:59.688Z,76.25
2023-01-15T10:28:30.698Z,75.91
2023-01-15T10:32:03.095Z,76.14
2023-01-15T10:35:37.301Z,76.05
2023-01-15T10:39:16.881Z,76.18
2023-01-15T10:42:52.576Z,76.05
2023-01-15T10:46:23.779Z,75.91
2023-01-15T10:49:52.261Z,76.40
2023-01-15T10:53:29.047Z,76.10
2023-01-15T10:57:02.442Z,76.14
2023-01-15T11:00:29.123Z,76.07
2023-01-15T11:03:57.062Z,76.14
2023-01-15T11:07:29.287Z,76.56
2023-01-15T11:10:56.640Z,76.62
2023-01-15T11:14:59.065Z,76.53
2023-01-15T11:18:48.184Z,76.38
2023-01-15T11:22:19.585Z,76.56
2023-01-15T11:25:55.593Z,76.54
2023-01-15T11:29:36.941Z,76.49
2023-01-15T11:33:05.348Z,76.89
2023-01-15T11:36:33.131Z,76.90
2023-01-15T11:40:07.006Z,76.48
2023-01-15T11:43:52.138Z,76.61
2023-01-15T11:47:39.764Z,76.35
2023-01-15T11:51:10.520Z,76.42
2023-01-15T11:54:42.906Z,76.18
2023-01-15T11:58:11.696Z,76.48
2023-01-15T12:01:42.436Z,76.49
2023-01-15T12:05:17.000Z,76.33
2023-01-15T12:08:52.017Z,76.46
2023-01-15T12:12:30.582Z,76.72
2023-01-15T12:16:04.719Z,76.39
2023-01-15T12:19:40.923Z,76.41
2023-01-15T12:23:28.005Z,76.41
2023-01-15T12:27:07.662Z,76.60
2023-01-15T12:30:43.927Z,76.52
2023-01-15T12:34:19.460Z,76.58
2023-01-15T12:37:49.943Z,76.57
2023-01-15T12:41:19.156Z,76.89
2023-01-15T12:45:04.966Z,77.00
2023-01-15T12:48:38.568Z,76.74
2023-01-15T12:52:06.153Z,76.82
2023-01-15T12:55:37.094Z,76.79
2023-01-15T12:59:11.966Z,76.77
2023-01-15T13:02:45.059Z,76.48
2023-01-15T13:06:14.539Z,76.59
2023-01-15T13:09:45.981Z,76.71
2023-01-15T13:13:23.144Z,76.68
2023-01-15T13:16:59.055Z,76.75
2023-01-15T13:20:44.027Z,76.86
2023-01-15T13:24:29.194Z,76.79
2023-01-15T13:28:12.338Z,76.76
2023-01-15T13:32:02.899Z,76.54
2023-01-15T13:35:38.107Z,76.98
2023-01-15T13:39:09.032Z,76.82
2023-01-15T13:42:41.387Z,76.70
2023-01-15T13:46:14.710Z,76.69
2023-01-15T13:49:48.356Z,76.77
2023-01-15T13:53:32.105Z,76.68
2023-01-15T13:57:08.394Z,76.99
2023-01-15T14:00:39.076Z,76.96
2023-01-15T14:04:16.556Z,76.90
2023-01-15T14:07:42.823Z,76.76
2023-01-15T14:11:38.654Z,76.77
2023-01-15T14:15:28.305Z,76.63
2023-01-15T14:19:22.732Z,76.78
2023-01-15T14:23:05.657Z,76.62
2023-01-15T14:26:44.117Z,76.64
2023-01-15T14:30:36.610Z,76.69
2023-01-15T14:34:29.746Z,76.66
2023-01-15T14:37:59.757Z,76.86
2023-01-15T14:41:57.077Z,77.02
2023-01-15T14:45:29.718Z,77.01
2023-01-15T14:49:01.972Z,76.98
2023-01-15T14:52:29.146Z,76.77
2023-01-15T14:56:01.176Z,76.98
2023-01-15T14:59:34.510Z,76.85
2023-01-15T15:03:04.685Z,76.96
2023-01-15T15:06:32.638Z,76.79
2023-01-15T15:10:05.439Z,76.79
2023-01-15T15:13:37.406Z,76.89
2023-01-15T15:17:08.918Z,76.91
2023-01-15T15:20:44.960Z,76.84
2023-01-15T15:24:18.521Z,76.63
2023-01-15T15:27:45.301Z,76.75
2023-01-15T15:31:13.635Z,76.67
2023-01-15T15:34:43.685Z,76.84
2023-01-15T15:38:17.120Z,76.97
2023-01-15T15:42:04.656Z,77.00
2023-01-15T15:45:50.474Z,77.03
2023-01-15T15:49:17.915Z,77.03
2023-01-15T15:52:47.159Z,77.00
2023-01-15T15:56:15.338Z,76.80
2023-01-15T15:59:46.318Z,76.84
2023-01-15T16:03:23.992Z,77.16
2023-01-15T16:06:55.158Z,76.90
2023-01-15T16:10:26.608Z,76.79
2023-01-15T16:13:57.658Z,76.77
2023-01-15T16:17:29.259Z,76.64
2023-01-15T16:20:59.305Z,76.70
2023-01-15T16:24:30.771Z,76.74
2023-01-15T16:28:03.783Z,76.74
2023-01-15T16:31:37.739Z,77.04
2023-01-15T16:35:19.731Z,76.89
2023-01-15T16:38:51.893Z,76.89
2023-01-15T16:42:31.947Z,76.89
2023-01-15T16:46:09.550Z,77.02
2023-01-15T16:49:41.375Z,77.09
2023-01-15T16:53:29.927Z,77.21
2023-01-15T16:56:59.403Z,77.21
2023-01-15T17:00:33.499Z,77.21
2023-01-15T17:04:05.831Z,77.21
2023-01-15T17:07:38.919Z,77.23
2023-01-15T17:11:17.959Z,77.17
2023-01-15T17:14:45.273Z,77.14
2023-01-15T17:18:32.611Z,77.16
2023-01-15T17:22:00.582Z,77.22
2023-01-15T17:25:33.749Z,77.19
2023-01-15T17:29:00.335Z,77.18
2023-01-15T17:32:33.069Z,77.12
2023-01-15T17:36:01.487Z,77.14
2023-01-15T17:39:28.620Z,77.47
2023-01-15T17:42:59.442Z,77.42
2023-01-15T17:46:26.625Z,77.33
2023-01-15T17:49:53.470Z,77.46
2023-01-15T17:53:19.980Z,77.48
2023-01-15T17:57:05.162Z,77.50
2023-01-15T18:00:49.636Z,77.46
2023-01-15T18:04:43.264Z,77.45
2023-01-15T18:08:12.729Z,77.54
2023-01-15T18:11:39.467Z,77.33
2023-01-15T18:15:08.422Z,77.36
2023-01-15T18:18:34.927Z,77.40
2023-01-15T18:22:02.903Z,77.44
2023-01-15T18:25:29.994Z,77.17
2023-01-15T18:28:59.230Z,77.28
2023-01-15T18:32:28.464Z,77.32
2023-01-15T18:36:07.247Z,77.35
2023-01-15T18:39:35.860Z,77.38
2023-01-15T18:43:20.294Z,77.20
2023-01-15T18:46:55.675Z,77.19
2023-01-15T18:50:22.640Z,77.17
2023-01-15T18:53:51.505Z,77.26
2023-01-15T18:57:18.898Z,77.19
2023-01-15T19:00:46.181Z,77.35
2023-01-15T19:04:12.695Z,77.19
2023-01-15T19:07:40.241Z,77.30
2023-01-15T19:11:15.016Z,77.23
2023-01-15T19:15:00.211Z,77.14
2023-01-15T19:18:53.552Z,77.18
2023-01-15T19:22:38.284Z,77.20
2023-01-15T19:26:07.833Z,77.24
2023-01-15T19:29:38.833Z,77.07
2023-01-15T19:33:12.527Z,77.12
2023-01-15T19:36:47.756Z,77.07
2023-01-15T19:40:30.816Z,77.04
2023-01-15T19:44:20.567Z,77.14
2023-01-15T19:48:07.241Z,77.05
2023-01-15T19:51:52.158Z,77.21
2023-01-15T19:55:21.472Z,77.11
2023-01-15T19:58:57.960Z,77.20
2023-01-15T20:02:27.023Z,77.15
2023-01-15T20:05:58.420Z,77.13
2023-01-15T20:09:28.086Z,77.05
2023-01-15T20:13:13.675Z,77.00
2023-01-15T20:16:41.088Z,76.84
2023-01-15T20:20:14.653Z,76.73
2023-01-15T20:23:43.956Z,76.45
2023-01-15T20:27:12.801Z,76.53
2023-01-15T20:30:46.390Z,76.64
2023-01-15T20:34:18.834Z,76.60
2023-01-15T20:37:48.109Z,76.62
2023-01-15T20:41:35.490Z,76.84
2023-01-15T20:45:08.938Z,76.79
2023-01-15T20:48:58.396Z,76.70
2023-01-15T20:52:44.669Z,76.68
2023-01-15T20:56:19.585Z,76.81
2023-01-15T20:59:52.126Z,76.61
2023-01-15T21:03:20.412Z,76.56
2023-01-15T21:06:52.143Z,76.48
2023-01-15T21:10:19.815Z,76.24
2023-01-15T21:13:49.840Z,76.36
2023-01-15T21:17:18.243Z,76.13
2023-01-15T21:20:52.015Z,76.36
2023-01-15T21:24:19.940Z,76.34
2023-01-15T21:27:47.053Z,76.41
2023-01-15T21:31:15.497Z,76.14
2023-01-15T21:34:43.140Z,76.20
2023-01-15T21:38:11.316Z,76.36
2023-01-15T21:41:55.533Z,76.16
2023-01-15T21:45:30.637Z,76.13
2023-01-15T21:48:58.462Z,76.38
2023-01-15T21:52:25.534Z,76.29
2023-01-15T21:55:55.408Z,76.15
2023-01-15T21:59:23.790Z,75.96
2023-01-15T22:02:51.168Z,75.96
2023-01-15T22:06:18.048Z,76.05
2023-01-15T22:09:45.813Z,75.93
2023-01-15T22:13:12.588Z,75.91
2023-01-15T22:16:39.662Z,76.08
2023-01-15T22:20:08.380Z,75.98
2023-01-15T22:23:36.398Z,76.06
2023-01-15T22:27:07.197Z,75.95
2023-01-15T22:30:46.550Z,76.04
2023-01-15T22:34:17.578Z,75.72
2023-01-15T22:37:44.852Z,75.59
2023-01-15T22:41:11.739Z,75.88
2023-01-15T22:44:40.460Z,75.79
2023-01-15T22:48:09.241Z,75.56
2023-01-15T22:51:36.896Z,75.60
2023-01-15T22:55:03.556Z,75.21
2023-01-15T22:58:31.820Z,75.29
2023-01-15T23:01:58.845Z,75.20
2023-01-15T23:05:29.403Z,75.32
2023-01-15T23:09:01.409Z,75.25
2023-01-15T23:12:32.842Z,75.20
2023-01-15T23:16:03.978Z,75.10
2023-01-15T23:19:34.165Z,75.24
2023-01-15T23:23:01.182Z,75.11
2023-01-15T23:26:31.727Z,74.85
2023-01-15T23:29:59.397Z,74.84
2023-01-15T23:33:27.763Z,75.03
2023-01-15T23:36:59.052Z,74.84
2023-01-15T23:40:26.080Z,74.66
2023-01-15T23:44:10.573Z,74.84
2023-01-15T23:47:37.937Z,74.81
2023-01-15T23:51:05.207Z,74.98
2023-01-15T23:54:33.022Z,74.93
2023-01-15T23:58:00.424Z,74.84
